Luhovicy, Russia
Current Conditions -  °F | °C
As of 4:30 PM on Wednesday 22 Oct 2014 (Local Time) from UUDD Reporting Station
Broken Clouds Broken Clouds  
Wind Chill: 11°   Ceiling: 2400
Heat Index: 25°   Visibility: 6mi
Dew Point: 16°   Wind: 18mph
Humidity: 69%   Direction: 330°NNW
Pressure: 29.94"   Gusts: NA
Location:  54.97°N, 39.04°E
Report Text: UUDD 221330Z 33008MPS 9999 BKN024 M04/M09 Q1014 3219009582290095 NOSIG
Loading
Personal Weather Stations






























Interactive Weather Map
Tropical Storm Tracking
New forecast layout! Learn more

10-Day Weather Forecast

Advertisements
Track Severe Weather on mobile